Flugplatz Kitzebur Medernach (ICAO Kennung:ELMD) (UL)

Hier findest Du alle Informationen zum Flugplatz Kitzebur Medernach (ICAO Kennung:ELMD) (UL).

Informationen für Piloten zum Flugplatz Kitzebur Medernach (ICAO Kennung:ELMD)

Hier findest Du alle relevanten Informationen, die Du als Pilot benötigst, um Kitzebur Medernach (ICAO Kennung:ELMD) anzufliegen.

Flugplatz: Kitzebur Medernach (ICAO Kennung:ELMD) ICAO-Code: UL Flugplatz
Frequenz Turm: 119,500 Mhz GAFOR Gebiet: -
Frequenz Ground: 119,500 Mhz Mogas: nein
Platzrunde: N 1700 ft Landegebühr: 0 €
Platzhöhe: - Sunrise: 07:01 Uhr UTC
Pisten: 06/24 - 150 m x 30 m, GRAS Sunset: 16:35 Uhr UTC

Flugwetter am Flugplatz Kitzebur Medernach (ICAO Kennung:ELMD)

Die METAR Information stammen aus EDFH (75.42 km entfernt).

METAR Code:
2023/01/07 14:20
EDFH 071420Z 21011KT 9999 BKN020 07/04 Q1011

Flugschulen am Flugplatz Kitzebur Medernach (ICAO Kennung:ELMD)

Am Flugplatz Kitzebur Medernach (ICAO Kennung:ELMD) gibt es leider keine Flugschule.

Benachbarte Flugplätze und Flugschulen

Es gibt 10 weitere Flugplätze in einem Umkreis von 50 km um den Flugplatz Kitzebur Medernach (ICAO Kennung:ELMD).

Jetzt anmelden

Passwort vergessen

Umfrage Archiv

Sendet Ihr ADS-B und/oder FLARM?

Ja
84.5 %
Nein
15.5 %
Stimmen: 277 | Diskussion
Anzeige: Roland Aircraft
Statistik Alle Mitglieder

Aktuell sind 48 Besucher online, davon 2 Mitglieder und 46 Gäste.


Mitglieder online:
Heli  Günter N 

Anzeige: EasyVFR